Estación Meteorológica Peña el Pijo (Robertgarden) [ 11/17/17 23:51:23 CET ]

Fecha Hora Presion(HPa) Temp (°C) Humedad % Rocio (°C) Viento ( m/s) Direccion Lluvia 1Hora(mm) Lluvia 24H(mm) LLuvia Total(mm)
2017-Sep-22 01:01:35 1011.400 11.6 69 6.1         1457.65
2017-Sep-22 02:01:37 1011.300 11.3 71 6.3         1457.65
2017-Sep-22 03:01:33 1011.200 11.0 72 6.2         1457.65
2017-Sep-22 04:01:36 1011.100 10.4 74 6.0         1457.65
2017-Sep-22 05:01:38 1011.000 9.8 75 5.5         1457.65
2017-Sep-22 06:01:34 1010.900 8.4 77 4.6         1457.65
2017-Sep-22 07:01:59 1010.900 7.6 79 4.2         1457.65
2017-Sep-22 08:01:50 1011.500 7.1 81 4.1         1457.65
2017-Sep-22 09:01:57 1011.600 9.0 83 6.2         1457.65
2017-Sep-22 10:02:01 1011.800 16.2 70 10.8         1457.65
2017-Sep-22 11:01:50 1011.900 21.9 49 10.7         1457.65
2017-Sep-22 12:01:43 1011.700 25.8 31 7.4         1457.65
2017-Sep-22 13:01:41 1011.500 25.9 26 4.7         1457.65
2017-Sep-22 14:01:54 1011.200 27.2 30 8.2         1457.65
2017-Sep-22 15:01:44 1011.300 26.9 34 9.6         1457.65
2017-Sep-22 16:01:41 1011.000 24.2 38 8.9         1457.65
2017-Sep-22 17:01:52 1010.900 22.2 46 10.0 1.1 WNW     1457.65
2017-Sep-22 18:01:47 1010.800 22.3 48 10.7         1457.65
2017-Sep-22 19:01:44 1011.400 21.5 52 11.2         1457.65
2017-Sep-22 20:01:39 1011.700 19.1 61 11.4         1457.65
2017-Sep-22 21:01:59 1012.300 17.1 67 10.9         1457.65
2017-Sep-22 22:01:42 1012.900 15.9 71 10.7         1457.65
2017-Sep-22 23:01:40 1013.200 15.5 74 10.9         1457.65

Temperatura Máxima:27°    Temperatura Mínima:
Presión Máxima:1013.200 Hpa    Presión Mínima:1010.800 Hpa


Volver